sensor_id;sensor_type;location;lat;lon;timestamp;pressure;altitude;pressure_sealevel;temperature;humidity
33155;BME280;19511;42.682;23.332;2023-05-01T00:02:08;95119.28;;;10.99;100.00
33155;BME280;19511;42.682;23.332;2023-05-01T00:04:41;95062.66;;;10.72;100.00
33155;BME280;19511;42.682;23.332;2023-05-01T00:07:06;95097.06;;;11.06;100.00
33155;BME280;19511;42.682;23.332;2023-05-01T00:09:35;95115.50;;;11.16;100.00
33155;BME280;19511;42.682;23.332;2023-05-01T00:12:00;95128.44;;;11.26;100.00
33155;BME280;19511;42.682;23.332;2023-05-01T00:14:27;95128.47;;;11.23;100.00
33155;BME280;19511;42.682;23.332;2023-05-01T00:16:53;95116.75;;;11.11;100.00
33155;BME280;19511;42.682;23.332;2023-05-01T00:19:18;95131.31;;;11.16;100.00
33155;BME280;19511;42.682;23.332;2023-05-01T00:21:45;95135.63;;;11.20;100.00
33155;BME280;19511;42.682;23.332;2023-05-01T00:24:12;95133.34;;;11.11;100.00
33155;BME280;19511;42.682;23.332;2023-05-01T00:26:37;95134.94;;;11.13;100.00
33155;BME280;19511;42.682;23.332;2023-05-01T00:29:03;95138.88;;;11.11;100.00
33155;BME280;19511;42.682;23.332;2023-05-01T00:31:28;95123.28;;;10.94;100.00
33155;BME280;19511;42.682;23.332;2023-05-01T00:33:54;95046.34;;;10.47;100.00
33155;BME280;19511;42.682;23.332;2023-05-01T00:36:19;95053.03;;;10.50;100.00
33155;BME280;19511;42.682;23.332;2023-05-01T00:38:45;95132.78;;;10.93;100.00
33155;BME280;19511;42.682;23.332;2023-05-01T00:41:11;95149.38;;;10.93;100.00
33155;BME280;19511;42.682;23.332;2023-05-01T00:43:39;95134.06;;;10.85;100.00
33155;BME280;19511;42.682;23.332;2023-05-01T00:46:06;95124.72;;;10.71;100.00
33155;BME280;19511;42.682;23.332;2023-05-01T00:48:32;95153.88;;;10.80;100.00
33155;BME280;19511;42.682;23.332;2023-05-01T00:50:59;95156.75;;;10.69;100.00
33155;BME280;19511;42.682;23.332;2023-05-01T00:53:25;95145.13;;;10.47;100.00
33155;BME280;19511;42.682;23.332;2023-05-01T00:55:53;95052.81;;;9.88;100.00
33155;BME280;19511;42.682;23.332;2023-05-01T00:58:20;95143.50;;;10.53;100.00
33155;BME280;19511;42.682;23.332;2023-05-01T01:00:47;95163.16;;;10.62;100.00
33155;BME280;19511;42.682;23.332;2023-05-01T01:03:15;95156.44;;;10.63;100.00
33155;BME280;19511;42.682;23.332;2023-05-01T01:06:12;95164.41;;;10.54;100.00
33155;BME280;19511;42.682;23.332;2023-05-01T01:08:50;95157.38;;;10.45;100.00
33155;BME280;19511;42.682;23.332;2023-05-01T01:11:26;95156.53;;;10.49;100.00
33155;BME280;19511;42.682;23.332;2023-05-01T01:16:40;95150.03;;;10.24;100.00
33155;BME280;19511;42.682;23.332;2023-05-01T01:22:09;95164.25;;;10.23;100.00
33155;BME280;19511;42.682;23.332;2023-05-01T01:30:31;95182.72;;;9.84;100.00
33155;BME280;19511;42.682;23.332;2023-05-01T01:36:09;95187.44;;;9.80;100.00
33155;BME280;19511;42.682;23.332;2023-05-01T01:38:45;95110.44;;;9.29;100.00
33155;BME280;19511;42.682;23.332;2023-05-01T01:41:23;95187.84;;;9.82;100.00
33155;BME280;19511;42.682;23.332;2023-05-01T01:44:48;95189.41;;;9.87;100.00
33155;BME280;19511;42.682;23.332;2023-05-01T01:46:48;95158.78;;;9.56;100.00
33155;BME280;19511;42.682;23.332;2023-05-01T01:49:19;95170.75;;;9.35;100.00
33155;BME280;19511;42.682;23.332;2023-05-01T01:51:46;95183.00;;;9.30;100.00
33155;BME280;19511;42.682;23.332;2023-05-01T01:54:14;95165.75;;;9.04;100.00
33155;BME280;19511;42.682;23.332;2023-05-01T01:56:43;95164.59;;;8.98;100.00
33155;BME280;19511;42.682;23.332;2023-05-01T01:59:10;95136.28;;;8.76;100.00
33155;BME280;19511;42.682;23.332;2023-05-01T02:01:38;95169.31;;;9.01;100.00
33155;BME280;19511;42.682;23.332;2023-05-01T02:04:04;95167.34;;;9.02;100.00
33155;BME280;19511;42.682;23.332;2023-05-01T02:06:31;95160.19;;;9.11;100.00
33155;BME280;19511;42.682;23.332;2023-05-01T02:09:01;95169.59;;;9.28;100.00
33155;BME280;19511;42.682;23.332;2023-05-01T02:11:29;95145.28;;;8.94;100.00
33155;BME280;19511;42.682;23.332;2023-05-01T02:13:56;95132.00;;;8.57;100.00
33155;BME280;19511;42.682;23.332;2023-05-01T02:16:25;95170.13;;;8.91;100.00
33155;BME280;19511;42.682;23.332;2023-05-01T02:18:56;95080.06;;;8.37;100.00
33155;BME280;19511;42.682;23.332;2023-05-01T02:21:28;95149.28;;;8.82;100.00
33155;BME280;19511;42.682;23.332;2023-05-01T02:23:56;95176.81;;;8.90;100.00
33155;BME280;19511;42.682;23.332;2023-05-01T02:26:24;95173.72;;;8.77;100.00
33155;BME280;19511;42.682;23.332;2023-05-01T02:28:50;95171.34;;;8.75;100.00
33155;BME280;19511;42.682;23.332;2023-05-01T02:31:21;95176.09;;;8.71;100.00
33155;BME280;19511;42.682;23.332;2023-05-01T02:33:47;95000.69;;;7.56;100.00
33155;BME280;19511;42.682;23.332;2023-05-01T02:36:12;95177.69;;;8.69;100.00
33155;BME280;19511;42.682;23.332;2023-05-01T02:38:38;95156.84;;;8.49;100.00
33155;BME280;19511;42.682;23.332;2023-05-01T02:41:06;95173.34;;;8.57;100.00
33155;BME280;19511;42.682;23.332;2023-05-01T02:43:33;95160.38;;;8.54;100.00
33155;BME280;19511;42.682;23.332;2023-05-01T02:46:00;95185.97;;;8.50;100.00
33155;BME280;19511;42.682;23.332;2023-05-01T02:48:29;95174.56;;;8.27;100.00
33155;BME280;19511;42.682;23.332;2023-05-01T02:50:57;95073.81;;;7.50;100.00
33155;BME280;19511;42.682;23.332;2023-05-01T02:53:26;95187.16;;;8.17;100.00
33155;BME280;19511;42.682;23.332;2023-05-01T02:55:52;95181.63;;;8.17;100.00
33155;BME280;19511;42.682;23.332;2023-05-01T02:58:18;95182.03;;;8.15;100.00
33155;BME280;19511;42.682;23.332;2023-05-01T03:00:45;95183.97;;;8.15;100.00
33155;BME280;19511;42.682;23.332;2023-05-01T03:03:11;95167.09;;;7.95;100.00
33155;BME280;19511;42.682;23.332;2023-05-01T03:05:37;95080.09;;;7.36;100.00
33155;BME280;19511;42.682;23.332;2023-05-01T03:08:04;95199.75;;;8.18;100.00
33155;BME280;19511;42.682;23.332;2023-05-01T03:10:29;95173.38;;;7.99;100.00
33155;BME280;19511;42.682;23.332;2023-05-01T03:12:55;95172.97;;;7.93;100.00
33155;BME280;19511;42.682;23.332;2023-05-01T03:15:20;95187.13;;;7.92;100.00
33155;BME280;19511;42.682;23.332;2023-05-01T03:17:46;95200.09;;;7.84;100.00
33155;BME280;19511;42.682;23.332;2023-05-01T03:20:11;95192.63;;;7.84;100.00
33155;BME280;19511;42.682;23.332;2023-05-01T03:22:37;95184.34;;;7.74;100.00
33155;BME280;19511;42.682;23.332;2023-05-01T03:25:06;95197.72;;;7.75;100.00
33155;BME280;19511;42.682;23.332;2023-05-01T03:27:31;95195.75;;;7.65;100.00
33155;BME280;19511;42.682;23.332;2023-05-01T03:29:57;95218.53;;;7.65;100.00
33155;BME280;19511;42.682;23.332;2023-05-01T03:32:22;95212.25;;;7.61;100.00
33155;BME280;19511;42.682;23.332;2023-05-01T03:34:48;95149.22;;;7.16;100.00
33155;BME280;19511;42.682;23.332;2023-05-01T03:37:13;95220.50;;;7.58;100.00
33155;BME280;19511;42.682;23.332;2023-05-01T03:39:39;95099.56;;;6.73;100.00
33155;BME280;19511;42.682;23.332;2023-05-01T03:42:05;95120.81;;;6.83;100.00
33155;BME280;19511;42.682;23.332;2023-05-01T03:44:31;95234.25;;;7.50;100.00
33155;BME280;19511;42.682;23.332;2023-05-01T03:46:57;95120.38;;;6.74;100.00
33155;BME280;19511;42.682;23.332;2023-05-01T03:49:22;95126.31;;;6.83;100.00
33155;BME280;19511;42.682;23.332;2023-05-01T03:51:48;95217.28;;;7.41;100.00
33155;BME280;19511;42.682;23.332;2023-05-01T03:54:17;95223.25;;;7.58;100.00
33155;BME280;19511;42.682;23.332;2023-05-01T03:56:43;95112.19;;;6.89;100.00
33155;BME280;19511;42.682;23.332;2023-05-01T03:59:08;95235.88;;;7.66;100.00
33155;BME280;19511;42.682;23.332;2023-05-01T04:01:34;95242.16;;;7.70;100.00
33155;BME280;19511;42.682;23.332;2023-05-01T04:03:59;95224.44;;;7.64;100.00
33155;BME280;19511;42.682;23.332;2023-05-01T04:06:26;95142.16;;;7.15;100.00
33155;BME280;19511;42.682;23.332;2023-05-01T04:08:52;95216.16;;;7.57;100.00
33155;BME280;19511;42.682;23.332;2023-05-01T04:11:17;95140.19;;;7.23;100.00
33155;BME280;19511;42.682;23.332;2023-05-01T04:13:43;95223.31;;;8.01;100.00
33155;BME280;19511;42.682;23.332;2023-05-01T04:16:08;95240.66;;;8.12;100.00
33155;BME280;19511;42.682;23.332;2023-05-01T04:18:34;95222.94;;;8.10;100.00
33155;BME280;19511;42.682;23.332;2023-05-01T04:20:59;95154.06;;;7.66;100.00
33155;BME280;19511;42.682;23.332;2023-05-01T04:23:25;95220.97;;;8.17;100.00
33155;BME280;19511;42.682;23.332;2023-05-01T04:25:54;95241.84;;;8.40;100.00
33155;BME280;19511;42.682;23.332;2023-05-01T04:28:23;95244.66;;;8.55;100.00
33155;BME280;19511;42.682;23.332;2023-05-01T04:30:49;95206.06;;;8.33;100.00
33155;BME280;19511;42.682;23.332;2023-05-01T04:33:15;95227.31;;;8.58;100.00
33155;BME280;19511;42.682;23.332;2023-05-01T04:35:40;95182.44;;;8.54;100.00
33155;BME280;19511;42.682;23.332;2023-05-01T04:38:07;95243.38;;;9.06;100.00
33155;BME280;19511;42.682;23.332;2023-05-01T04:40:33;95245.34;;;9.13;100.00
33155;BME280;19511;42.682;23.332;2023-05-01T04:42:59;95253.19;;;9.22;100.00
33155;BME280;19511;42.682;23.332;2023-05-01T04:45:25;95023.47;;;7.85;100.00
33155;BME280;19511;42.682;23.332;2023-05-01T04:47:50;95150.81;;;8.87;100.00
33155;BME280;19511;42.682;23.332;2023-05-01T04:50:16;95240.84;;;9.59;100.00
33155;BME280;19511;42.682;23.332;2023-05-01T04:52:41;95239.56;;;9.82;100.00
33155;BME280;19511;42.682;23.332;2023-05-01T04:55:07;95239.47;;;9.92;100.00
33155;BME280;19511;42.682;23.332;2023-05-01T04:57:33;95231.63;;;9.87;100.00
33155;BME280;19511;42.682;23.332;2023-05-01T05:00:03;95246.56;;;9.97;100.00
33155;BME280;19511;42.682;23.332;2023-05-01T05:02:32;95232.34;;;9.95;100.00
33155;BME280;19511;42.682;23.332;2023-05-01T05:04:58;95240.19;;;10.07;100.00
33155;BME280;19511;42.682;23.332;2023-05-01T05:07:23;95262.94;;;10.29;100.00
33155;BME280;19511;42.682;23.332;2023-05-01T05:09:49;95224.41;;;10.04;100.00
33155;BME280;19511;42.682;23.332;2023-05-01T05:12:19;95255.16;;;10.13;100.00
33155;BME280;19511;42.682;23.332;2023-05-01T05:14:44;95269.31;;;10.23;100.00
33155;BME280;19511;42.682;23.332;2023-05-01T05:17:10;95257.44;;;10.26;100.00
33155;BME280;19511;42.682;23.332;2023-05-01T05:19:35;95267.16;;;10.49;100.00
33155;BME280;19511;42.682;23.332;2023-05-01T05:22:01;95190.94;;;9.88;100.00
33155;BME280;19511;42.682;23.332;2023-05-01T05:24:28;95285.72;;;10.52;100.00
33155;BME280;19511;42.682;23.332;2023-05-01T05:26:53;95267.88;;;10.60;100.00
33155;BME280;19511;42.682;23.332;2023-05-01T05:29:19;95253.28;;;10.56;100.00
33155;BME280;19511;42.682;23.332;2023-05-01T05:31:45;95283.28;;;10.61;100.00
33155;BME280;19511;42.682;23.332;2023-05-01T05:34:11;95273.09;;;10.51;100.00
33155;BME280;19511;42.682;23.332;2023-05-01T05:36:37;95249.81;;;10.44;100.00
33155;BME280;19511;42.682;23.332;2023-05-01T05:39:02;95217.06;;;10.43;100.00
33155;BME280;19511;42.682;23.332;2023-05-01T05:41:28;95277.94;;;10.85;100.00
33155;BME280;19511;42.682;23.332;2023-05-01T05:43:53;95181.09;;;10.43;100.00
33155;BME280;19511;42.682;23.332;2023-05-01T05:46:19;95276.84;;;11.17;100.00
33155;BME280;19511;42.682;23.332;2023-05-01T05:48:47;95250.38;;;11.16;100.00
33155;BME280;19511;42.682;23.332;2023-05-01T05:51:12;95278.25;;;11.36;100.00
33155;BME280;19511;42.682;23.332;2023-05-01T05:53:40;95252.91;;;11.37;100.00
33155;BME280;19511;42.682;23.332;2023-05-01T05:56:10;95267.34;;;11.56;100.00
33155;BME280;19511;42.682;23.332;2023-05-01T05:58:35;95281.19;;;11.87;100.00
33155;BME280;19511;42.682;23.332;2023-05-01T06:01:01;95258.25;;;11.86;100.00
33155;BME280;19511;42.682;23.332;2023-05-01T06:03:33;95287.88;;;12.24;100.00
33155;BME280;19511;42.682;23.332;2023-05-01T06:06:02;95292.75;;;12.44;100.00
33155;BME280;19511;42.682;23.332;2023-05-01T06:08:32;95281.69;;;12.40;100.00
33155;BME280;19511;42.682;23.332;2023-05-01T06:10:59;95283.53;;;12.50;100.00
33155;BME280;19511;42.682;23.332;2023-05-01T06:13:24;95281.84;;;12.56;100.00
33155;BME280;19511;42.682;23.332;2023-05-01T06:15:50;95292.28;;;12.49;100.00
33155;BME280;19511;42.682;23.332;2023-05-01T06:18:16;95300.03;;;12.61;100.00
33155;BME280;19511;42.682;23.332;2023-05-01T06:20:46;95264.72;;;12.62;100.00
33155;BME280;19511;42.682;23.332;2023-05-01T06:23:12;95202.75;;;12.21;100.00
33155;BME280;19511;42.682;23.332;2023-05-01T06:25:38;95291.84;;;12.78;100.00
33155;BME280;19511;42.682;23.332;2023-05-01T06:28:04;95277.09;;;12.57;100.00
33155;BME280;19511;42.682;23.332;2023-05-01T06:30:29;95263.81;;;12.68;100.00
33155;BME280;19511;42.682;23.332;2023-05-01T06:32:55;95290.69;;;12.99;100.00
33155;BME280;19511;42.682;23.332;2023-05-01T06:35:20;95268.06;;;12.77;100.00
33155;BME280;19511;42.682;23.332;2023-05-01T06:37:52;95294.72;;;12.94;100.00
33155;BME280;19511;42.682;23.332;2023-05-01T06:40:20;95262.72;;;13.10;100.00
33155;BME280;19511;42.682;23.332;2023-05-01T06:42:45;95295.53;;;13.42;100.00
33155;BME280;19511;42.682;23.332;2023-05-01T06:45:11;95289.19;;;13.62;100.00
33155;BME280;19511;42.682;23.332;2023-05-01T06:47:40;95271.16;;;13.70;100.00
33155;BME280;19511;42.682;23.332;2023-05-01T06:50:09;95272.44;;;13.85;100.00
33155;BME280;19511;42.682;23.332;2023-05-01T06:52:35;95301.94;;;13.79;100.00
33155;BME280;19511;42.682;23.332;2023-05-01T06:55:00;95282.63;;;13.92;100.00
33155;BME280;19511;42.682;23.332;2023-05-01T06:57:27;95280.91;;;13.98;100.00
33155;BME280;19511;42.682;23.332;2023-05-01T06:59:53;95268.66;;;13.96;100.00
33155;BME280;19511;42.682;23.332;2023-05-01T07:02:21;95174.25;;;13.52;100.00
33155;BME280;19511;42.682;23.332;2023-05-01T07:04:51;95275.44;;;14.31;100.00
33155;BME280;19511;42.682;23.332;2023-05-01T07:07:16;95296.25;;;14.23;100.00
33155;BME280;19511;42.682;23.332;2023-05-01T07:09:44;95299.81;;;14.44;100.00
33155;BME280;19511;42.682;23.332;2023-05-01T07:12:10;95144.47;;;13.32;100.00
33155;BME280;19511;42.682;23.332;2023-05-01T07:14:43;95283.88;;;14.44;100.00
33155;BME280;19511;42.682;23.332;2023-05-01T07:17:08;95283.84;;;14.28;100.00
33155;BME280;19511;42.682;23.332;2023-05-01T07:19:34;95291.63;;;14.36;100.00
33155;BME280;19511;42.682;23.332;2023-05-01T07:21:59;95298.31;;;14.39;100.00
33155;BME280;19511;42.682;23.332;2023-05-01T07:24:25;95297.91;;;14.57;100.00
33155;BME280;19511;42.682;23.332;2023-05-01T07:26:50;95274.50;;;14.54;100.00
33155;BME280;19511;42.682;23.332;2023-05-01T07:29:16;95196.97;;;14.03;100.00
33155;BME280;19511;42.682;23.332;2023-05-01T07:31:41;95295.84;;;14.78;100.00
33155;BME280;19511;42.682;23.332;2023-05-01T07:34:07;95271.22;;;14.76;100.00
33155;BME280;19511;42.682;23.332;2023-05-01T07:36:32;95280.91;;;15.05;100.00
33155;BME280;19511;42.682;23.332;2023-05-01T07:38:58;95274.69;;;15.13;100.00
33155;BME280;19511;42.682;23.332;2023-05-01T07:41:23;95304.31;;;15.24;100.00
33155;BME280;19511;42.682;23.332;2023-05-01T07:43:49;95279.84;;;15.15;100.00
33155;BME280;19511;42.682;23.332;2023-05-01T07:46:19;95289.84;;;15.29;100.00
33155;BME280;19511;42.682;23.332;2023-05-01T07:48:44;95278.06;;;15.38;100.00
33155;BME280;19511;42.682;23.332;2023-05-01T07:51:09;95281.22;;;15.52;100.00
33155;BME280;19511;42.682;23.332;2023-05-01T07:53:35;95289.63;;;15.82;100.00
33155;BME280;19511;42.682;23.332;2023-05-01T07:56:07;95289.59;;;16.11;100.00
33155;BME280;19511;42.682;23.332;2023-05-01T07:58:34;95211.34;;;15.60;100.00
33155;BME280;19511;42.682;23.332;2023-05-01T08:01:00;95276.78;;;16.14;100.00
33155;BME280;19511;42.682;23.332;2023-05-01T08:03:29;95278.47;;;15.82;100.00
33155;BME280;19511;42.682;23.332;2023-05-01T08:05:56;95281.25;;;15.82;100.00
33155;BME280;19511;42.682;23.332;2023-05-01T08:08:24;95272.13;;;15.94;100.00
33155;BME280;19511;42.682;23.332;2023-05-01T08:10:50;95209.03;;;15.71;100.00
33155;BME280;19511;42.682;23.332;2023-05-01T08:13:16;95281.56;;;16.26;100.00
33155;BME280;19511;42.682;23.332;2023-05-01T08:15:41;95291.19;;;16.51;100.00
33155;BME280;19511;42.682;23.332;2023-05-01T08:18:08;95257.91;;;16.44;100.00
33155;BME280;19511;42.682;23.332;2023-05-01T08:20:40;95277.47;;;16.57;100.00
33155;BME280;19511;42.682;23.332;2023-05-01T08:23:06;95194.84;;;16.21;100.00
33155;BME280;19511;42.682;23.332;2023-05-01T08:25:32;95294.44;;;16.88;100.00
33155;BME280;19511;42.682;23.332;2023-05-01T08:27:57;95281.59;;;16.78;100.00
33155;BME280;19511;42.682;23.332;2023-05-01T08:30:22;95208.88;;;16.43;100.00
33155;BME280;19511;42.682;23.332;2023-05-01T08:32:48;95283.38;;;16.85;100.00
33155;BME280;19511;42.682;23.332;2023-05-01T08:35:13;95277.78;;;16.97;100.00
33155;BME280;19511;42.682;23.332;2023-05-01T08:37:39;95280.59;;;17.10;100.00
33155;BME280;19511;42.682;23.332;2023-05-01T08:40:05;95282.53;;;17.23;100.00
33155;BME280;19511;42.682;23.332;2023-05-01T08:42:34;95268.06;;;17.02;100.00
33155;BME280;19511;42.682;23.332;2023-05-01T08:45:01;95277.75;;;17.23;100.00
33155;BME280;19511;42.682;23.332;2023-05-01T08:47:29;95283.00;;;17.56;100.00
33155;BME280;19511;42.682;23.332;2023-05-01T08:49:56;95258.94;;;17.81;100.00
33155;BME280;19511;42.682;23.332;2023-05-01T08:52:27;95183.56;;;17.55;100.00
33155;BME280;19511;42.682;23.332;2023-05-01T08:57:20;95275.34;;;18.14;100.00
33155;BME280;19511;42.682;23.332;2023-05-01T08:59:47;95264.50;;;18.16;100.00
33155;BME280;19511;42.682;23.332;2023-05-01T09:02:15;95254.41;;;17.97;100.00
33155;BME280;19511;42.682;23.332;2023-05-01T09:04:41;95167.38;;;17.50;100.00
33155;BME280;19511;42.682;23.332;2023-05-01T09:07:07;95268.31;;;18.32;100.00
33155;BME280;19511;42.682;23.332;2023-05-01T09:09:34;95264.50;;;18.48;100.00
33155;BME280;19511;42.682;23.332;2023-05-01T09:14:28;95263.34;;;18.36;92.96
33155;BME280;19511;42.682;23.332;2023-05-01T09:16:54;95259.78;;;18.35;96.67
33155;BME280;19511;42.682;23.332;2023-05-01T09:19:20;95253.97;;;18.30;96.88
33155;BME280;19511;42.682;23.332;2023-05-01T09:21:46;95260.50;;;18.26;97.17
33155;BME280;19511;42.682;23.332;2023-05-01T09:24:12;95263.50;;;18.32;96.98
33155;BME280;19511;42.682;23.332;2023-05-01T09:26:40;95254.53;;;18.15;99.15
33155;BME280;19511;42.682;23.332;2023-05-01T09:29:07;95256.63;;;18.33;97.00
33155;BME280;19511;42.682;23.332;2023-05-01T09:31:34;95274.97;;;18.56;99.91
33155;BME280;19511;42.682;23.332;2023-05-01T09:34:04;95272.81;;;18.60;98.31
33155;BME280;19511;42.682;23.332;2023-05-01T09:36:33;95272.06;;;18.38;98.07
33155;BME280;19511;42.682;23.332;2023-05-01T09:39:00;95265.91;;;18.52;99.38
33155;BME280;19511;42.682;23.332;2023-05-01T09:43:59;95264.91;;;18.77;94.80
33155;BME280;19511;42.682;23.332;2023-05-01T09:46:26;95180.53;;;18.25;94.43
33155;BME280;19511;42.682;23.332;2023-05-01T09:48:56;95272.03;;;19.01;90.85
33155;BME280;19511;42.682;23.332;2023-05-01T09:51:25;95253.97;;;19.02;91.13
33155;BME280;19511;42.682;23.332;2023-05-01T09:53:51;95259.28;;;19.18;92.09
33155;BME280;19511;42.682;23.332;2023-05-01T09:56:18;95244.28;;;18.93;88.22
33155;BME280;19511;42.682;23.332;2023-05-01T09:58:44;95242.44;;;19.00;88.54
33155;BME280;19511;42.682;23.332;2023-05-01T10:01:09;95253.06;;;19.14;88.39
33155;BME280;19511;42.682;23.332;2023-05-01T10:03:35;95239.19;;;19.11;93.00
33155;BME280;19511;42.682;23.332;2023-05-01T10:06:00;95240.59;;;19.06;90.06
33155;BME280;19511;42.682;23.332;2023-05-01T10:08:47;95250.44;;;19.20;90.21
33155;BME280;19511;42.682;23.332;2023-05-01T10:11:13;95161.41;;;18.83;93.02
33155;BME280;19511;42.682;23.332;2023-05-01T10:13:38;95181.34;;;18.85;90.11
33155;BME280;19511;42.682;23.332;2023-05-01T10:16:04;95225.34;;;19.16;89.39
33155;BME280;19511;42.682;23.332;2023-05-01T10:18:40;95233.59;;;19.29;90.72
33155;BME280;19511;42.682;23.332;2023-05-01T10:21:06;95233.44;;;19.42;91.19
33155;BME280;19511;42.682;23.332;2023-05-01T10:23:35;95208.50;;;19.25;92.22
33155;BME280;19511;42.682;23.332;2023-05-01T10:26:05;95235.34;;;19.54;94.04
33155;BME280;19511;42.682;23.332;2023-05-01T10:28:33;95237.47;;;19.78;94.34
33155;BME280;19511;42.682;23.332;2023-05-01T10:30:59;95235.63;;;20.03;86.71
33155;BME280;19511;42.682;23.332;2023-05-01T10:33:29;95230.19;;;19.90;89.75
33155;BME280;19511;42.682;23.332;2023-05-01T10:35:57;95226.91;;;19.92;90.05
33155;BME280;19511;42.682;23.332;2023-05-01T10:38:32;95135.91;;;19.18;88.76
33155;BME280;19511;42.682;23.332;2023-05-01T10:41:03;95244.34;;;19.68;89.83
33155;BME280;19511;42.682;23.332;2023-05-01T10:43:34;95184.84;;;19.27;88.57
33155;BME280;19511;42.682;23.332;2023-05-01T10:51:14;95234.56;;;18.85;89.57
33155;BME280;19511;42.682;23.332;2023-05-01T10:53:42;95218.94;;;18.56;89.29
33155;BME280;19511;42.682;23.332;2023-05-01T10:58:58;95222.19;;;18.96;89.86
33155;BME280;19511;42.682;23.332;2023-05-01T11:03:58;95230.78;;;19.11;89.77
33155;BME280;19511;42.682;23.332;2023-05-01T11:06:24;95237.72;;;18.87;91.44
33155;BME280;19511;42.682;23.332;2023-05-01T11:08:50;95230.88;;;18.88;88.51
33155;BME280;19511;42.682;23.332;2023-05-01T11:19:52;95233.81;;;18.85;86.88
33155;BME280;19511;42.682;23.332;2023-05-01T11:21:59;95227.47;;;18.93;84.42
33155;BME280;19511;42.682;23.332;2023-05-01T11:24:34;95234.34;;;19.02;86.14
33155;BME280;19511;42.682;23.332;2023-05-01T11:27:05;95229.38;;;19.24;84.83
33155;BME280;19511;42.682;23.332;2023-05-01T11:29:34;95226.91;;;19.64;85.74
33155;BME280;19511;42.682;23.332;2023-05-01T11:32:08;95231.59;;;19.67;81.77
33155;BME280;19511;42.682;23.332;2023-05-01T11:34:34;95224.56;;;19.90;81.08
33155;BME280;19511;42.682;23.332;2023-05-01T11:37:08;95233.44;;;19.98;80.85
33155;BME280;19511;42.682;23.332;2023-05-01T11:39:37;95230.94;;;20.00;78.14
33155;BME280;19511;42.682;23.332;2023-05-01T11:42:08;95214.91;;;19.72;78.64
33155;BME280;19511;42.682;23.332;2023-05-01T11:44:33;95212.41;;;19.65;79.65
33155;BME280;19511;42.682;23.332;2023-05-01T11:47:04;95220.69;;;19.87;79.46
33155;BME280;19511;42.682;23.332;2023-05-01T11:49:33;95199.44;;;19.96;77.72
33155;BME280;19511;42.682;23.332;2023-05-01T11:52:03;95210.69;;;19.77;75.08
33155;BME280;19511;42.682;23.332;2023-05-01T11:54:46;95226.09;;;19.82;77.61
33155;BME280;19511;42.682;23.332;2023-05-01T11:57:15;95223.31;;;19.54;78.10
33155;BME280;19511;42.682;23.332;2023-05-01T12:02:19;95228.00;;;19.57;81.77
33155;BME280;19511;42.682;23.332;2023-05-01T12:05:12;95210.69;;;19.40;82.44
33155;BME280;19511;42.682;23.332;2023-05-01T12:07:49;95210.69;;;19.21;84.33
33155;BME280;19511;42.682;23.332;2023-05-01T12:10:15;95174.56;;;19.14;83.26
33155;BME280;19511;42.682;23.332;2023-05-01T12:12:43;95234.69;;;19.69;80.86
33155;BME280;19511;42.682;23.332;2023-05-01T12:15:14;95236.28;;;19.61;78.95
33155;BME280;19511;42.682;23.332;2023-05-01T12:17:46;95230.97;;;19.44;77.55
33155;BME280;19511;42.682;23.332;2023-05-01T12:20:15;95243.75;;;19.64;76.46
33155;BME280;19511;42.682;23.332;2023-05-01T12:22:52;95246.22;;;19.80;72.14
33155;BME280;19511;42.682;23.332;2023-05-01T12:25:21;95213.03;;;19.60;72.80
33155;BME280;19511;42.682;23.332;2023-05-01T12:27:49;95162.72;;;19.19;71.22
33155;BME280;19511;42.682;23.332;2023-05-01T12:30:26;95154.59;;;18.93;73.14
33155;BME280;19511;42.682;23.332;2023-05-01T12:32:52;95245.13;;;19.22;75.46
33155;BME280;19511;42.682;23.332;2023-05-01T12:35:22;95157.16;;;18.60;76.81
33155;BME280;19511;42.682;23.332;2023-05-01T12:38:20;95251.47;;;19.04;76.90
33155;BME280;19511;42.682;23.332;2023-05-01T12:43:31;95248.19;;;18.96;81.88
33155;BME280;19511;42.682;23.332;2023-05-01T12:46:12;95242.06;;;18.88;84.84
33155;BME280;19511;42.682;23.332;2023-05-01T12:51:08;95240.91;;;19.45;82.86
33155;BME280;19511;42.682;23.332;2023-05-01T12:53:42;95235.00;;;19.62;83.40
33155;BME280;19511;42.682;23.332;2023-05-01T12:56:21;95230.50;;;19.73;83.51
33155;BME280;19511;42.682;23.332;2023-05-01T12:58:48;95219.09;;;19.77;85.88
33155;BME280;19511;42.682;23.332;2023-05-01T13:01:25;95225.50;;;19.78;86.18
33155;BME280;19511;42.682;23.332;2023-05-01T13:03:51;95205.56;;;19.85;86.55
33155;BME280;19511;42.682;23.332;2023-05-01T13:06:21;95223.94;;;19.95;86.63
33155;BME280;19511;42.682;23.332;2023-05-01T13:08:51;95140.88;;;19.51;86.31
33155;BME280;19511;42.682;23.332;2023-05-01T13:11:16;95230.56;;;20.26;85.72
33155;BME280;19511;42.682;23.332;2023-05-01T13:13:48;95231.34;;;20.26;85.77
33155;BME280;19511;42.682;23.332;2023-05-01T13:16:21;95242.94;;;20.19;84.27
33155;BME280;19511;42.682;23.332;2023-05-01T13:18:52;95240.91;;;20.10;82.76
33155;BME280;19511;42.682;23.332;2023-05-01T13:21:23;95241.84;;;20.16;81.32
33155;BME280;19511;42.682;23.332;2023-05-01T13:23:57;95154.59;;;19.49;83.32
33155;BME280;19511;42.682;23.332;2023-05-01T13:26:29;95254.94;;;20.01;81.40
33155;BME280;19511;42.682;23.332;2023-05-01T13:28:56;95248.69;;;20.06;80.02
33155;BME280;19511;42.682;23.332;2023-05-01T13:31:24;95260.44;;;19.95;79.94
33155;BME280;19511;42.682;23.332;2023-05-01T13:33:51;95244.97;;;19.81;81.65
33155;BME280;19511;42.682;23.332;2023-05-01T13:36:21;95252.63;;;19.81;79.01
33155;BME280;19511;42.682;23.332;2023-05-01T13:38:49;95251.22;;;19.95;81.71